Park Rapids, Minnesota
Current Conditions -  °F | °C
As of 7:21 AM on Saturday 20 Dec 2014 (Local Time) from KPKD Reporting Station
Haze Haze  
Wind Chill: -6°   Ceiling: 500
Heat Index: -1°   Visibility: 4mi
Dew Point: -2°   Wind: 12mph
Humidity: 92%   Direction: 190°S
Pressure: 30.02"   Gusts: NA
Location:  46.92°N, 95.06°W
Report Text: KPKD 201321Z AUTO 19010KT 4SM BR OVC005 M01/M02 A3002 RMK AO2 T10111022
Loading
Personal Weather Stations






























Interactive Weather Map New forecast layout! Learn more

10-Day Weather Forecast

Advertisements
Track Severe Weather on mobile